createdAt,value
2023-02-12T00:01:39.025Z,29.58
2023-02-12T00:04:05.882Z,30.27
2023-02-12T00:06:32.578Z,26.83
2023-02-12T00:08:59.253Z,27.10
2023-02-12T00:11:30.063Z,27.42
2023-02-12T00:13:57.745Z,26.63
2023-02-12T00:16:28.608Z,25.08
2023-02-12T00:18:57.025Z,27.00
2023-02-12T00:21:23.835Z,28.42
2023-02-12T00:23:50.551Z,27.15
2023-02-12T00:26:20.710Z,25.60
2023-02-12T00:28:47.696Z,22.50
2023-02-12T00:31:18.649Z,26.20
2023-02-12T00:33:45.846Z,23.35
2023-02-12T00:36:18.435Z,26.27
2023-02-12T00:38:46.601Z,32.00
2023-02-12T00:41:13.811Z,27.17
2023-02-12T00:43:40.560Z,24.88
2023-02-12T00:46:08.018Z,24.73
2023-02-12T00:48:36.198Z,28.83
2023-02-12T00:51:03.135Z,26.00
2023-02-12T00:53:30.174Z,25.48
2023-02-12T00:55:57.192Z,22.52
2023-02-12T00:58:24.262Z,23.17
2023-02-12T01:00:50.976Z,34.83
2023-02-12T01:03:17.896Z,24.75
2023-02-12T01:05:44.564Z,30.20
2023-02-12T01:08:16.020Z,25.95
2023-02-12T01:10:44.121Z,25.40
2023-02-12T01:13:13.987Z,25.25
2023-02-12T01:15:41.891Z,24.55
2023-02-12T01:18:08.559Z,24.65
2023-02-12T01:20:35.293Z,26.02
2023-02-12T01:23:01.934Z,24.88
2023-02-12T01:25:28.580Z,26.65
2023-02-12T01:27:55.553Z,24.48
2023-02-12T01:30:24.140Z,26.55
2023-02-12T01:32:50.980Z,24.27
2023-02-12T01:35:17.699Z,23.13
2023-02-12T01:37:44.361Z,22.88
2023-02-12T01:40:16.084Z,25.45
2023-02-12T01:42:42.807Z,22.50
2023-02-12T01:45:12.540Z,26.90
2023-02-12T01:47:40.532Z,26.67
2023-02-12T01:50:10.237Z,20.05
2023-02-12T01:52:39.942Z,23.92
2023-02-12T01:55:08.765Z,23.23
2023-02-12T01:57:39.942Z,24.40
2023-02-12T02:00:14.520Z,24.02
2023-02-12T02:02:45.053Z,25.23
2023-02-12T02:05:14.862Z,21.30
2023-02-12T02:07:44.059Z,20.15
2023-02-12T02:10:11.059Z,21.87
2023-02-12T02:12:57.088Z,23.85
2023-02-12T02:15:26.511Z,21.15
2023-02-12T02:18:02.188Z,23.63
2023-02-12T02:20:34.586Z,21.30
2023-02-12T02:23:20.943Z,24.30
2023-02-12T02:26:45.026Z,25.00
2023-02-12T02:29:32.897Z,27.17
2023-02-12T02:32:08.235Z,24.08
2023-02-12T02:34:34.869Z,25.42
2023-02-12T02:37:18.066Z,23.00
2023-02-12T02:40:25.739Z,24.20
2023-02-12T02:43:04.681Z,26.13
2023-02-12T02:45:39.968Z,25.25
2023-02-12T02:48:22.030Z,21.52
2023-02-12T02:50:54.623Z,21.92
2023-02-12T02:53:30.072Z,24.05
2023-02-12T02:56:01.025Z,26.25
2023-02-12T02:58:51.282Z,24.58
2023-02-12T03:01:30.501Z,28.13
2023-02-12T03:04:07.094Z,23.55
2023-02-12T03:06:45.090Z,26.95
2023-02-12T03:09:21.258Z,22.70
2023-02-12T03:11:50.829Z,26.52
2023-02-12T03:14:20.255Z,24.98
2023-02-12T03:16:57.599Z,26.00
2023-02-12T03:19:29.488Z,25.27
2023-02-12T03:22:08.159Z,21.70
2023-02-12T03:24:46.328Z,25.42
2023-02-12T03:27:31.569Z,27.85
2023-02-12T03:29:59.159Z,23.80
2023-02-12T03:32:44.427Z,27.13
2023-02-12T03:35:35.223Z,24.20
2023-02-12T03:38:22.918Z,25.45
2023-02-12T03:41:06.334Z,23.58
2023-02-12T03:43:57.665Z,26.27
2023-02-12T03:46:40.402Z,26.52
2023-02-12T03:49:20.088Z,27.42
2023-02-12T03:51:46.759Z,31.58
2023-02-12T03:54:18.518Z,29.00
2023-02-12T03:57:06.545Z,24.08
2023-02-12T03:59:36.397Z,24.45
2023-02-12T04:02:03.207Z,26.25
2023-02-12T04:04:30.628Z,26.58
2023-02-12T04:06:57.938Z,29.65
2023-02-12T04:09:28.002Z,28.92
2023-02-12T04:14:44.444Z,27.77
2023-02-12T04:17:32.663Z,30.60
2023-02-12T04:20:32.947Z,30.95
2023-02-12T04:26:02.973Z,26.42
2023-02-12T04:28:58.385Z,28.13
2023-02-12T04:32:00.570Z,29.02
2023-02-12T04:34:43.017Z,32.72
2023-02-12T04:37:17.808Z,33.45
2023-02-12T04:39:45.694Z,31.15
2023-02-12T04:42:12.389Z,29.23
2023-02-12T04:44:42.606Z,29.23
2023-02-12T04:47:12.624Z,34.03
2023-02-12T04:52:06.030Z,32.55
2023-02-12T04:54:32.779Z,32.05
2023-02-12T04:56:59.934Z,28.80
2023-02-12T04:59:26.676Z,32.22
2023-02-12T05:01:53.338Z,32.47
2023-02-12T05:04:20.172Z,38.67
2023-02-12T05:06:47.081Z,33.35
2023-02-12T05:09:17.672Z,30.05
2023-02-12T05:11:44.718Z,31.40
2023-02-12T05:14:11.873Z,32.30
2023-02-12T05:16:38.557Z,29.70
2023-02-12T05:19:05.279Z,31.23
2023-02-12T05:21:31.949Z,25.33
2023-02-12T05:23:58.613Z,26.70
2023-02-12T05:26:25.335Z,31.45
2023-02-12T05:28:52.019Z,29.08
2023-02-12T05:31:21.558Z,32.03
2023-02-12T05:33:49.462Z,32.00
2023-02-12T05:36:19.276Z,28.73
2023-02-12T05:38:46.361Z,31.33
2023-02-12T05:41:18.613Z,31.02
2023-02-12T05:43:47.803Z,29.85
2023-02-12T05:46:17.737Z,27.35
2023-02-12T05:48:44.687Z,27.00
2023-02-12T05:51:14.156Z,29.30
2023-02-12T05:53:41.388Z,32.17
2023-02-12T05:56:14.815Z,31.95
2023-02-12T05:58:43.656Z,29.00
2023-02-12T06:01:17.133Z,30.33
2023-02-12T06:03:44.006Z,27.40
2023-02-12T06:06:11.624Z,33.47
2023-02-12T06:08:38.716Z,30.20
2023-02-12T06:11:08.509Z,32.08
2023-02-12T06:13:35.926Z,28.20
2023-02-12T06:16:02.749Z,28.67
2023-02-12T06:18:29.889Z,35.92
2023-02-12T06:20:56.837Z,33.65
2023-02-12T06:23:24.795Z,30.60
2023-02-12T06:25:56.028Z,30.50
2023-02-12T06:28:23.257Z,35.22
2023-02-12T06:30:50.029Z,33.03
2023-02-12T06:33:16.768Z,30.95
2023-02-12T06:35:43.450Z,31.02
2023-02-12T06:38:11.006Z,31.98
2023-02-12T06:40:37.656Z,36.00
2023-02-12T06:43:04.381Z,34.72
2023-02-12T06:45:31.109Z,34.38
2023-02-12T06:47:57.776Z,32.95
2023-02-12T06:50:25.181Z,32.45
2023-02-12T06:52:52.005Z,32.30
2023-02-12T06:55:18.807Z,30.73
2023-02-12T06:57:45.487Z,31.33
2023-02-12T07:00:12.574Z,32.85
2023-02-12T07:02:39.356Z,29.77
2023-02-12T07:05:06.360Z,31.70
2023-02-12T07:07:33.313Z,36.15
2023-02-12T07:10:00.008Z,28.40
2023-02-12T07:12:26.671Z,33.65
2023-02-12T07:14:53.322Z,30.77
2023-02-12T07:17:20.054Z,27.77
2023-02-12T07:19:46.766Z,26.20
2023-02-12T07:22:13.407Z,28.33
2023-02-12T07:24:40.119Z,30.77
2023-02-12T07:27:06.821Z,27.70
2023-02-12T07:29:33.559Z,25.80
2023-02-12T07:32:00.865Z,28.92
2023-02-12T07:34:27.751Z,28.40
2023-02-12T07:36:54.419Z,31.55
2023-02-12T07:39:21.190Z,27.85
2023-02-12T07:41:47.831Z,33.60
2023-02-12T07:44:14.539Z,32.92
2023-02-12T07:46:48.304Z,30.42
2023-02-12T07:49:20.697Z,32.85
2023-02-12T07:51:48.381Z,29.73
2023-02-12T07:54:15.624Z,33.33
2023-02-12T07:56:46.690Z,28.92
2023-02-12T07:59:16.663Z,26.25
2023-02-12T08:01:51.176Z,24.13
2023-02-12T08:04:20.885Z,33.50
2023-02-12T08:06:50.198Z,28.92
2023-02-12T08:09:19.746Z,29.17
2023-02-12T08:11:46.603Z,28.77
2023-02-12T08:14:15.577Z,29.98
2023-02-12T08:16:43.789Z,24.70
2023-02-12T08:19:18.990Z,28.40
2023-02-12T08:21:50.912Z,28.42
2023-02-12T08:24:17.748Z,29.42
2023-02-12T08:26:45.259Z,31.90
2023-02-12T08:29:15.248Z,27.33
2023-02-12T08:31:47.668Z,25.27
2023-02-12T08:34:29.368Z,24.30
2023-02-12T08:36:56.882Z,29.10
2023-02-12T08:39:25.727Z,32.75
2023-02-12T08:41:55.539Z,35.45
2023-02-12T08:44:22.460Z,28.85
2023-02-12T08:46:53.739Z,32.03
2023-02-12T08:49:23.217Z,31.52
2023-02-12T08:51:52.189Z,33.28
2023-02-12T08:54:24.621Z,32.88
2023-02-12T08:56:55.581Z,32.38
2023-02-12T08:59:22.312Z,32.83
2023-02-12T09:01:51.362Z,32.45
2023-02-12T09:04:21.917Z,34.30
2023-02-12T09:06:49.110Z,31.23
2023-02-12T09:09:16.560Z,34.65
2023-02-12T09:11:44.726Z,36.75
2023-02-12T09:14:14.423Z,40.20
2023-02-12T09:16:41.842Z,34.20
2023-02-12T09:19:11.360Z,40.65
2023-02-12T09:21:38.031Z,33.85
2023-02-12T09:24:04.848Z,37.67
2023-02-12T09:26:31.819Z,43.05
2023-02-12T09:28:58.541Z,43.00
2023-02-12T09:31:28.425Z,44.25
2023-02-12T09:34:00.742Z,40.83
2023-02-12T09:36:27.830Z,44.10
2023-02-12T09:38:54.714Z,45.35
2023-02-12T09:41:46.532Z,42.63
2023-02-12T09:44:41.006Z,42.38
2023-02-12T09:47:26.898Z,51.67
2023-02-12T09:50:18.544Z,44.15
2023-02-12T09:52:45.508Z,42.53
2023-02-12T09:55:18.079Z,36.38
2023-02-12T09:57:46.020Z,42.60
2023-02-12T10:00:31.963Z,45.00
2023-02-12T10:03:05.467Z,40.08
2023-02-12T10:05:54.852Z,40.03
2023-02-12T10:09:11.230Z,44.37
2023-02-12T10:11:43.787Z,47.95
2023-02-12T10:14:22.536Z,49.60
2023-02-12T10:17:03.810Z,42.95
2023-02-12T10:20:01.428Z,47.35
2023-02-12T10:22:56.406Z,45.13
2023-02-12T10:25:29.065Z,46.10
2023-02-12T10:27:57.732Z,49.35
2023-02-12T10:30:50.152Z,46.30
2023-02-12T10:33:21.368Z,46.75
2023-02-12T10:35:54.665Z,46.33
2023-02-12T10:38:26.229Z,46.45
2023-02-12T10:40:55.165Z,37.28
2023-02-12T10:43:21.826Z,44.30
2023-02-12T10:45:50.490Z,42.15
2023-02-12T10:48:20.864Z,40.15
2023-02-12T10:51:05.755Z,37.65
2023-02-12T10:53:34.186Z,36.75
2023-02-12T10:56:17.443Z,43.90
2023-02-12T10:58:53.649Z,38.55
2023-02-12T11:01:33.759Z,40.83
2023-02-12T11:04:30.416Z,35.25
2023-02-12T11:07:09.816Z,35.38
2023-02-12T11:09:45.855Z,36.22
2023-02-12T11:12:29.591Z,30.58
2023-02-12T11:15:23.816Z,32.05
2023-02-12T11:18:04.515Z,25.05
2023-02-12T11:20:41.596Z,29.10
2023-02-12T11:23:25.521Z,23.17
2023-02-12T11:26:07.649Z,23.92
2023-02-12T11:28:36.652Z,22.15
2023-02-12T11:31:12.574Z,16.92
2023-02-12T11:33:39.381Z,18.40
2023-02-12T11:36:16.258Z,17.77
2023-02-12T11:39:03.681Z,21.23
2023-02-12T11:41:40.207Z,15.27
2023-02-12T11:44:12.743Z,13.05
2023-02-12T11:46:45.917Z,10.27
2023-02-12T11:49:21.470Z,12.88
2023-02-12T11:51:49.207Z,14.57
2023-02-12T11:54:22.951Z,15.70
2023-02-12T11:56:49.887Z,13.70
2023-02-12T11:59:37.394Z,16.27
2023-02-12T12:02:33.422Z,14.90
2023-02-12T12:05:18.963Z,13.45
2023-02-12T12:07:57.893Z,14.02
2023-02-12T12:10:44.103Z,16.10
2023-02-12T12:13:16.558Z,16.00
2023-02-12T12:16:22.950Z,12.77
2023-02-12T12:19:17.339Z,13.18
2023-02-12T12:21:52.667Z,16.30
2023-02-12T12:24:45.631Z,13.90
2023-02-12T12:27:46.363Z,11.65
2023-02-12T12:30:32.359Z,12.05
2023-02-12T12:33:02.513Z,14.20
2023-02-12T12:35:44.866Z,13.38
2023-02-12T12:38:20.265Z,18.00
2023-02-12T12:40:58.541Z,14.80
2023-02-12T12:43:31.282Z,15.45
2023-02-12T12:46:48.589Z,17.10
2023-02-12T12:49:58.387Z,15.82
2023-02-12T12:53:03.893Z,15.25
2023-02-12T12:55:50.327Z,17.45
2023-02-12T12:58:27.462Z,15.98
2023-02-12T13:01:25.780Z,18.73
2023-02-12T13:04:13.840Z,18.35
2023-02-12T13:06:49.473Z,26.45
2023-02-12T13:09:18.996Z,17.92
2023-02-12T13:11:57.190Z,17.48
2023-02-12T13:14:33.320Z,18.35
2023-02-12T13:17:41.079Z,20.17
2023-02-12T13:20:31.369Z,19.42
2023-02-12T13:25:48.073Z,24.25
2023-02-12T13:28:40.915Z,21.35
2023-02-12T13:31:33.960Z,17.35
2023-02-12T13:34:14.569Z,19.38
2023-02-12T13:36:42.651Z,19.23
2023-02-12T13:39:18.823Z,21.40
2023-02-12T13:41:57.408Z,18.67
2023-02-12T13:44:32.844Z,17.77
2023-02-12T13:47:20.403Z,16.73
2023-02-12T13:50:08.979Z,17.63
2023-02-12T13:52:49.318Z,17.42
2023-02-12T13:58:37.556Z,16.35
2023-02-12T14:01:05.251Z,17.90
2023-02-12T14:03:32.467Z,18.65
2023-02-12T14:06:14.144Z,17.48
2023-02-12T14:08:47.151Z,17.35
2023-02-12T14:11:17.664Z,16.83
2023-02-12T14:13:55.845Z,17.75
2023-02-12T14:16:28.761Z,16.85
2023-02-12T14:19:32.828Z,16.25
2023-02-12T14:22:00.766Z,16.33
2023-02-12T14:24:36.712Z,24.35
2023-02-12T14:27:06.434Z,18.02
2023-02-12T14:29:33.151Z,18.50
2023-02-12T14:31:59.996Z,15.68
2023-02-12T14:34:35.869Z,20.45
2023-02-12T14:37:31.804Z,17.50
2023-02-12T14:40:33.356Z,18.63
2023-02-12T14:43:01.881Z,15.25
2023-02-12T14:45:33.375Z,20.40
2023-02-12T14:48:00.635Z,19.25
2023-02-12T14:50:50.039Z,15.95
2023-02-12T14:53:22.546Z,16.33
2023-02-12T14:55:50.963Z,16.20
2023-02-12T14:58:20.980Z,17.88
2023-02-12T15:00:50.766Z,17.10
2023-02-12T15:03:34.664Z,17.27
2023-02-12T15:06:14.809Z,15.57
2023-02-12T15:08:56.417Z,17.88
2023-02-12T15:11:35.482Z,15.20
2023-02-12T15:14:15.066Z,17.00
2023-02-12T15:16:51.992Z,17.58
2023-02-12T15:19:34.249Z,18.92
2023-02-12T15:22:00.988Z,14.90
2023-02-12T15:24:28.049Z,18.27
2023-02-12T15:26:58.638Z,19.17
2023-02-12T15:29:57.451Z,17.83
2023-02-12T15:32:29.690Z,20.33
2023-02-12T15:34:57.060Z,15.70
2023-02-12T15:37:27.325Z,19.75
2023-02-12T15:42:28.685Z,17.70
2023-02-12T15:45:16.737Z,20.13
2023-02-12T15:47:45.884Z,17.30
2023-02-12T15:50:18.127Z,17.90
2023-02-12T15:52:46.811Z,21.10
2023-02-12T15:55:17.352Z,18.52
2023-02-12T15:57:49.216Z,17.15
2023-02-12T16:00:44.110Z,16.45
2023-02-12T16:03:26.428Z,16.98
2023-02-12T16:05:57.978Z,15.88
2023-02-12T16:08:25.485Z,19.08
2023-02-12T16:10:53.984Z,18.70
2023-02-12T16:13:35.252Z,17.33
2023-02-12T16:16:07.773Z,18.25
2023-02-12T16:18:34.508Z,17.10
2023-02-12T16:21:07.730Z,17.55
2023-02-12T16:23:35.346Z,20.98
2023-02-12T16:26:02.833Z,31.05
2023-02-12T16:28:31.627Z,18.60
2023-02-12T16:31:10.878Z,21.35
2023-02-12T16:33:40.796Z,19.30
2023-02-12T16:36:10.390Z,24.40
2023-02-12T16:38:44.582Z,21.10
2023-02-12T16:41:19.809Z,19.75
2023-02-12T16:44:15.293Z,20.85
2023-02-12T16:46:51.125Z,21.08
2023-02-12T16:49:21.167Z,21.73
2023-02-12T16:51:48.465Z,18.90
2023-02-12T16:54:31.904Z,23.58
2023-02-12T16:56:59.352Z,21.23
2023-02-12T16:59:26.288Z,29.73
2023-02-12T17:02:04.005Z,29.27
2023-02-12T17:04:31.260Z,27.67
2023-02-12T17:06:58.388Z,24.30
2023-02-12T17:09:25.062Z,29.80
2023-02-12T17:11:51.808Z,28.05
2023-02-12T17:14:20.173Z,31.55
2023-02-12T17:16:46.914Z,27.67
2023-02-12T17:19:13.987Z,28.63
2023-02-12T17:21:43.817Z,25.98
2023-02-12T17:24:23.339Z,25.05
2023-02-12T17:26:51.093Z,27.42
2023-02-12T17:29:18.993Z,23.73
2023-02-12T17:31:46.056Z,19.38
2023-02-12T17:34:12.784Z,18.17
2023-02-12T17:36:39.896Z,18.85
2023-02-12T17:39:08.661Z,20.00
2023-02-12T17:41:35.737Z,19.75
2023-02-12T17:44:02.784Z,17.48
2023-02-12T17:46:30.147Z,17.00
2023-02-12T17:48:57.674Z,17.35
2023-02-12T17:51:25.332Z,22.48
2023-02-12T17:53:52.091Z,17.35
2023-02-12T17:56:21.333Z,19.00
2023-02-12T17:58:48.980Z,17.83
2023-02-12T18:01:19.718Z,17.50
2023-02-12T18:03:46.665Z,17.95
2023-02-12T18:06:16.562Z,18.15
2023-02-12T18:08:43.749Z,17.85
2023-02-12T18:11:11.692Z,16.52
2023-02-12T18:13:39.353Z,14.55
2023-02-12T18:16:10.663Z,17.90
2023-02-12T18:18:40.055Z,19.52
2023-02-12T18:21:12.671Z,17.55
2023-02-12T18:23:39.544Z,16.23
2023-02-12T18:26:12.037Z,17.45
2023-02-12T18:28:39.307Z,17.75
2023-02-12T18:31:07.170Z,18.48
2023-02-12T18:33:34.994Z,18.20
2023-02-12T18:36:13.954Z,15.70
2023-02-12T18:38:42.252Z,14.32
2023-02-12T18:41:11.985Z,15.35
2023-02-12T18:43:38.744Z,14.07
2023-02-12T18:46:07.588Z,13.43
2023-02-12T18:48:34.368Z,18.88
2023-02-12T18:51:02.737Z,13.88
2023-02-12T18:53:29.515Z,13.80
2023-02-12T18:55:56.295Z,14.98
2023-02-12T18:58:23.156Z,19.88
2023-02-12T19:00:49.936Z,29.30
2023-02-12T19:03:17.154Z,25.70
2023-02-12T19:05:43.862Z,22.10
2023-02-12T19:08:10.781Z,22.02
2023-02-12T19:10:40.041Z,17.42
2023-02-12T19:13:06.966Z,14.23
2023-02-12T19:15:33.736Z,13.93
2023-02-12T19:18:01.229Z,17.25
2023-02-12T19:20:28.016Z,21.20
2023-02-12T19:22:54.694Z,18.10
2023-02-12T19:25:21.426Z,17.52
2023-02-12T19:27:48.259Z,14.82
2023-02-12T19:30:15.105Z,15.13
2023-02-12T19:32:41.909Z,14.80
2023-02-12T19:35:08.849Z,20.67
2023-02-12T19:37:35.523Z,33.38
2023-02-12T19:40:02.250Z,43.13
2023-02-12T19:42:29.138Z,46.40
2023-02-12T19:44:55.813Z,40.30
2023-02-12T19:47:22.550Z,51.25
2023-02-12T19:49:49.555Z,43.67
2023-02-12T19:52:16.227Z,43.28
2023-02-12T19:54:45.153Z,44.42
2023-02-12T19:57:13.490Z,27.95
2023-02-12T19:59:41.095Z,34.83
2023-02-12T20:02:09.258Z,21.70
2023-02-12T20:04:36.897Z,28.23
2023-02-12T20:07:03.790Z,18.73
2023-02-12T20:09:30.567Z,17.33
2023-02-12T20:11:57.369Z,20.70
2023-02-12T20:14:24.169Z,24.17
2023-02-12T20:16:53.657Z,19.67
2023-02-12T20:19:23.781Z,17.20
2023-02-12T20:21:57.572Z,17.08
2023-02-12T20:24:26.932Z,20.25
2023-02-12T20:26:54.653Z,19.55
2023-02-12T20:29:21.541Z,20.52
2023-02-12T20:31:48.351Z,24.05
2023-02-12T20:34:17.292Z,20.92
2023-02-12T20:36:48.746Z,29.35
2023-02-12T20:39:19.389Z,29.73
2023-02-12T20:41:46.683Z,35.08
2023-02-12T20:44:16.901Z,36.72
2023-02-12T20:46:47.568Z,34.55
2023-02-12T20:49:16.813Z,35.35
2023-02-12T20:51:44.689Z,27.37
2023-02-12T20:54:12.224Z,29.98
2023-02-12T20:56:39.396Z,25.77
2023-02-12T20:59:07.069Z,20.58
2023-02-12T21:01:39.352Z,19.92
2023-02-12T21:04:08.527Z,20.63
2023-02-12T21:06:36.047Z,21.73
2023-02-12T21:09:02.975Z,17.77
2023-02-12T21:11:29.891Z,20.25
2023-02-12T21:13:59.289Z,21.30
2023-02-12T21:16:35.327Z,19.65
2023-02-12T21:19:03.098Z,18.60
2023-02-12T21:21:32.379Z,18.63
2023-02-12T21:24:00.645Z,18.20
2023-02-12T21:26:30.442Z,16.80
2023-02-12T21:28:58.686Z,20.27
2023-02-12T21:31:28.698Z,19.60
2023-02-12T21:33:56.954Z,23.33
2023-02-12T21:36:35.630Z,19.38
2023-02-12T21:39:03.994Z,18.40
2023-02-12T21:41:35.579Z,18.10
2023-02-12T21:44:22.238Z,20.25
2023-02-12T21:46:48.902Z,19.48
2023-02-12T21:49:24.611Z,20.33
2023-02-12T21:51:53.716Z,21.33
2023-02-12T21:54:20.751Z,18.10
2023-02-12T21:56:48.540Z,18.42
2023-02-12T21:59:15.927Z,18.30
2023-02-12T22:01:47.255Z,26.20
2023-02-12T22:04:14.575Z,24.15
2023-02-12T22:06:45.937Z,22.77
2023-02-12T22:09:15.011Z,20.00
2023-02-12T22:11:42.319Z,18.88
2023-02-12T22:14:12.495Z,19.15
2023-02-12T22:19:06.611Z,17.48
2023-02-12T22:21:36.063Z,18.10
2023-02-12T22:24:04.888Z,23.02
2023-02-12T22:26:32.831Z,28.50
2023-02-12T22:29:06.050Z,28.50
2023-02-12T22:31:36.243Z,25.35
2023-02-12T22:34:06.043Z,23.80
2023-02-12T22:36:35.880Z,27.17
2023-02-12T22:39:02.591Z,22.50
2023-02-12T22:41:29.846Z,20.88
2023-02-12T22:44:00.060Z,24.23
2023-02-12T22:46:26.891Z,18.08
2023-02-12T22:48:53.709Z,18.00
2023-02-12T22:51:23.408Z,17.40
2023-02-12T22:53:50.311Z,16.65
2023-02-12T22:56:17.391Z,18.17
2023-02-12T22:58:44.640Z,20.50
2023-02-12T23:01:14.012Z,20.58
2023-02-12T23:03:41.209Z,19.35
2023-02-12T23:06:11.029Z,22.25
2023-02-12T23:08:37.814Z,23.13
2023-02-12T23:11:06.999Z,24.77
2023-02-12T23:16:01.514Z,23.05
2023-02-12T23:18:28.150Z,26.17
2023-02-12T23:20:55.028Z,23.42
2023-02-12T23:23:22.769Z,20.88
2023-02-12T23:25:49.510Z,23.75
2023-02-12T23:28:16.662Z,20.67
2023-02-12T23:30:43.617Z,25.23
2023-02-12T23:33:10.587Z,24.17
2023-02-12T23:35:38.119Z,26.05
2023-02-12T23:38:05.215Z,26.67
2023-02-12T23:40:33.343Z,24.30
2023-02-12T23:43:00.350Z,26.00
2023-02-12T23:45:27.714Z,19.85
2023-02-12T23:47:54.743Z,23.65
2023-02-12T23:50:21.479Z,25.80
2023-02-12T23:52:48.448Z,24.10
2023-02-12T23:55:15.208Z,22.50
2023-02-12T23:57:41.844Z,23.73
